Time;durP1;ratioP1;P1;durP2;ratioP2;P2;SDS_P1;SDS_P2;PMS_P1;PMS_P2;Temp;Humidity;BMP_temperature;BMP_pressure;BME280_temperature;BME280_humidity;BME280_pressure;Samples;Min_cycle;Max_cycle;Signal;HPM_P1;HPM_P2
2022/10/22 00:01:16;;;;;;;;;;;;;;;16.86;48.24;101822.78;4938734;28;1101;-62
2022/10/22 00:03:42;;;;;;;;;;;;;;;17.47;48.63;101813.78;4957656;28;1175;-61
2022/10/22 00:06:07;;;;;;;;;;;;;;;17.07;48.61;101812.97;4958355;28;1125;-61
2022/10/22 00:08:33;;;;;;;;;;;;;;;16.81;48.04;101815.25;4957721;28;2476;-59
2022/10/22 00:10:58;;;;;;;;;;;;;;;17.35;47.82;101803.75;4957878;28;852;-60
2022/10/22 00:13:24;;;;;;;;;;;;;;;16.96;48.43;101806.47;4959947;28;1984;-60
2022/10/22 00:15:49;;;;;;;;;;;;;;;16.71;47.86;101801.38;4948555;28;1364;-61
2022/10/22 00:18:14;;;;;;;;;;;;;;;17.65;48.06;101802.47;4961868;28;1177;-59
2022/10/22 00:20:40;;;;;;;;;;;;;;;16.91;48.38;101798.13;4960739;28;1212;-58
2022/10/22 00:23:05;;;;;;;;;;;;;;;18.44;47.26;101795.66;4978190;28;1155;-59
2022/10/22 00:25:31;;;;;;;;;;;;;;;17.70;48.37;101794.28;4955025;28;1110;-59
2022/10/22 00:27:56;;;;;;;;;;;;;;;17.16;48.43;101783.13;4978703;28;1590;-59
2022/10/22 00:30:21;;;;;;;;;;;;;;;16.97;47.56;101783.41;4961714;28;1134;-59
2022/10/22 00:32:47;;;;;;;;;;;;;;;17.70;48.34;101779.72;4961144;28;1969;-59
2022/10/22 00:35:12;;;;;;;;;;;;;;;17.08;48.38;101768.75;4961095;28;898;-59
2022/10/22 00:37:38;;;;;;;;;;;;;;;16.86;47.85;101765.91;4961091;28;2452;-59
2022/10/22 00:40:03;;;;;;;;;;;;;;;17.89;47.97;101760.94;4986217;28;1105;-59
2022/10/22 00:42:29;;;;;;;;;;;;;;;17.03;48.51;101768.66;4954390;29;1161;-59
2022/10/22 00:45:13;;;;;;;;;;;;;;;16.79;47.66;101759.75;4961153;28;1129;-59
2022/10/22 00:47:42;;;;;;;;;;;;;;;16.95;47.70;101751.78;4947945;28;905;-59
2022/10/22 00:50:12;;;;;;;;;;;;;;;17.37;47.94;101754.00;4955789;29;1165;-59
2022/10/22 00:52:37;;;;;;;;;;;;;;;16.83;48.69;101762.81;4985424;28;1127;-60
2022/10/22 00:55:03;;;;;;;;;;;;;;;18.67;46.87;101748.75;4956702;28;1914;-60
2022/10/22 00:57:28;;;;;;;;;;;;;;;17.44;48.68;101751.88;4952297;29;1125;-59
2022/10/22 00:59:54;;;;;;;;;;;;;;;17.04;48.28;101755.72;4959048;28;949;-59
2022/10/22 01:02:20;;;;;;;;;;;;;;;16.81;47.37;101748.50;4981144;28;1108;-59
2022/10/22 01:04:45;;;;;;;;;;;;;;;17.86;47.88;101751.28;4947543;28;1118;-59
2022/10/22 01:07:14;;;;;;;;;;;;;;;17.20;48.49;101745.81;4960833;28;1181;-61
2022/10/22 01:09:58;;;;;;;;;;;;;;;16.87;48.10;101739.25;4979932;28;2489;-61
2022/10/22 01:12:26;;;;;;;;;;;;;;;16.99;47.89;101745.50;4957808;29;1149;-62
2022/10/22 01:14:58;;;;;;;;;;;;;;;17.24;48.59;101730.47;4960758;28;1981;-60
2022/10/22 01:17:23;;;;;;;;;;;;;;;18.43;47.19;101733.41;4960792;28;1248;-60
2022/10/22 01:19:52;;;;;;;;;;;;;;;17.14;51.45;101730.31;4960677;28;1121;-60
2022/10/22 01:22:53;;;;;;;;;;;;;;;16.39;52.15;101725.88;4979043;28;1145;-60
2022/10/22 01:25:21;;;;;;;;;;;;;;;17.34;50.37;101729.78;4927769;29;1207;-61
2022/10/22 01:28:07;;;;;;;;;;;;;;;17.17;49.67;101724.34;4938774;29;1182;-60
2022/10/22 01:30:33;;;;;;;;;;;;;;;16.72;48.99;101729.72;4952824;28;1195;-60
2022/10/22 01:33:00;;;;;;;;;;;;;;;17.33;49.22;101728.91;4960446;28;1971;-60
2022/10/22 01:35:31;;;;;;;;;;;;;;;16.98;49.38;101724.59;4991136;28;933;-62
2022/10/22 01:37:57;;;;;;;;;;;;;;;16.75;48.21;101718.22;4960545;28;2280;-62
2022/10/22 01:40:23;;;;;;;;;;;;;;;16.63;47.37;101714.72;4959385;29;1200;-61
2022/10/22 01:42:58;;;;;;;;;;;;;;;17.85;47.90;101718.50;4960584;28;1114;-61
2022/10/22 01:45:23;;;;;;;;;;;;;;;16.94;48.83;101712.47;4960274;28;1134;-61
2022/10/22 01:47:52;;;;;;;;;;;;;;;16.72;47.80;101715.97;4957714;28;1133;-61
2022/10/22 01:50:30;;;;;;;;;;;;;;;17.07;48.54;101712.09;4953412;28;1086;-62
2022/10/22 01:52:59;;;;;;;;;;;;;;;16.93;48.37;101708.88;4941666;29;1911;-62
2022/10/22 01:55:27;;;;;;;;;;;;;;;16.98;48.30;101708.13;4959955;28;1121;-62
2022/10/22 01:58:15;;;;;;;;;;;;;;;17.74;48.09;101710.16;4947460;28;1141;-60
2022/10/22 02:00:44;;;;;;;;;;;;;;;16.91;48.65;101708.31;4959539;29;896;-60
2022/10/22 02:03:12;;;;;;;;;;;;;;;16.86;48.15;101707.38;4960262;28;1125;-60
2022/10/22 02:05:40;;;;;;;;;;;;;;;17.33;48.45;101714.34;4983768;28;1136;-60
2022/10/22 02:08:07;;;;;;;;;;;;;;;16.80;48.14;101720.19;4984698;28;1851;-60
2022/10/22 02:10:32;;;;;;;;;;;;;;;17.37;48.21;101727.31;4959677;28;1185;-59
2022/10/22 02:12:58;;;;;;;;;;;;;;;17.10;48.26;101719.84;4958653;29;1989;-59
2022/10/22 02:15:24;;;;;;;;;;;;;;;16.67;48.12;101715.06;4959836;28;1200;-58
2022/10/22 02:17:49;;;;;;;;;;;;;;;16.83;47.87;101718.84;4958733;28;1157;-60
2022/10/22 02:20:16;;;;;;;;;;;;;;;17.27;48.29;101710.72;4959800;28;1110;-59
2022/10/22 02:22:41;;;;;;;;;;;;;;;16.73;48.07;101720.38;4976468;28;1128;-61
2022/10/22 02:25:07;;;;;;;;;;;;;;;18.41;47.12;101715.47;4959713;28;1157;-61
2022/10/22 02:27:35;;;;;;;;;;;;;;;17.31;48.03;101724.78;4946083;28;1105;-61
2022/10/22 02:30:01;;;;;;;;;;;;;;;18.22;47.66;101712.31;4951838;28;1122;-62
2022/10/22 02:32:29;;;;;;;;;;;;;;;16.68;51.36;101717.56;4954246;29;1185;-61
2022/10/22 02:34:54;;;;;;;;;;;;;;;15.57;53.00;101707.91;4986497;28;1906;-60
2022/10/22 02:37:20;;;;;;;;;;;;;;;18.19;48.71;101701.81;4958959;28;1118;-60
2022/10/22 02:39:45;;;;;;;;;;;;;;;17.31;49.56;101700.06;4959195;28;2490;-60
2022/10/22 02:42:11;;;;;;;;;;;;;;;17.27;49.88;101716.22;4959451;28;1146;-60
2022/10/22 02:44:37;;;;;;;;;;;;;;;18.07;48.59;101708.31;4959330;28;1102;-60
2022/10/22 02:47:02;;;;;;;;;;;;;;;17.26;49.12;101709.88;4958735;28;1168;-60
2022/10/22 02:49:28;;;;;;;;;;;;;;;16.93;48.44;101708.88;4958941;28;1138;-60
2022/10/22 02:51:53;;;;;;;;;;;;;;;16.79;47.48;101703.97;4959134;28;1145;-60
2022/10/22 02:54:18;;;;;;;;;;;;;;;17.14;48.14;101694.59;4959143;28;1906;-60
2022/10/22 02:56:44;;;;;;;;;;;;;;;17.16;48.82;101697.94;4954926;28;1129;-60
2022/10/22 02:59:09;;;;;;;;;;;;;;;16.86;48.12;101693.66;4948786;29;1200;-61
2022/10/22 03:01:35;;;;;;;;;;;;;;;18.05;47.79;101691.25;4958916;28;1106;-58
2022/10/22 03:04:00;;;;;;;;;;;;;;;17.06;49.12;101695.88;4958583;28;1098;-60
2022/10/22 03:06:25;;;;;;;;;;;;;;;17.72;48.70;101698.56;4958700;28;1133;-61
2022/10/22 03:08:51;;;;;;;;;;;;;;;17.79;48.77;101698.38;4950567;28;2396;-57
2022/10/22 03:11:17;;;;;;;;;;;;;;;17.19;48.55;101700.97;4958792;28;1181;-60
2022/10/22 03:13:42;;;;;;;;;;;;;;;16.94;47.98;101695.97;4959078;28;1915;-58
2022/10/22 03:16:08;;;;;;;;;;;;;;;16.81;47.35;101693.56;4958808;28;1126;-63
2022/10/22 03:18:33;;;;;;;;;;;;;;;16.56;47.21;101694.84;4947604;28;1117;-60
2022/10/22 03:21:07;;;;;;;;;;;;;;;17.63;47.79;101689.16;4952665;28;1149;-60
2022/10/22 03:23:32;;;;;;;;;;;;;;;16.86;48.52;101699.16;4980212;28;1133;-63
2022/10/22 03:25:58;;;;;;;;;;;;;;;17.64;48.38;101690.78;4958544;28;1097;-65
2022/10/22 03:28:23;;;;;;;;;;;;;;;17.39;49.19;101678.44;4981156;28;1239;-65
2022/10/22 03:30:48;;;;;;;;;;;;;;;16.92;48.35;101678.94;4953474;28;1157;-65
2022/10/22 03:33:14;;;;;;;;;;;;;;;17.36;48.58;101684.44;4958128;28;1977;-63
2022/10/22 03:35:41;;;;;;;;;;;;;;;17.19;48.48;101679.00;4958010;28;1173;-61
2022/10/22 03:38:07;;;;;;;;;;;;;;;16.84;47.96;101682.06;4957204;29;2233;-63
2022/10/22 03:40:32;;;;;;;;;;;;;;;17.27;48.29;101674.97;4958454;28;1162;-64
2022/10/22 03:42:57;;;;;;;;;;;;;;;17.39;48.61;101683.94;4958360;28;1169;-61
2022/10/22 03:45:23;;;;;;;;;;;;;;;17.35;49.12;101687.41;4958503;28;1180;-63
2022/10/22 03:47:48;;;;;;;;;;;;;;;18.95;46.57;101679.50;4957425;28;1126;-65
2022/10/22 03:50:14;;;;;;;;;;;;;;;14.33;57.33;101687.91;4958144;28;1162;-64
2022/10/22 03:52:39;;;;;;;;;;;;;;;16.24;50.03;101684.44;4956978;28;1020;-60
2022/10/22 03:55:05;;;;;;;;;;;;;;;17.48;49.70;101683.47;4954084;28;1994;-60
2022/10/22 03:57:30;;;;;;;;;;;;;;;16.80;49.80;101678.16;4949333;28;1113;-62
2022/10/22 03:59:56;;;;;;;;;;;;;;;17.50;49.45;101684.03;4957949;28;1129;-64
2022/10/22 04:02:21;;;;;;;;;;;;;;;17.40;49.33;101677.34;4958283;28;1204;-64
2022/10/22 04:04:47;;;;;;;;;;;;;;;16.89;48.75;101684.94;4957806;28;1204;-65
2022/10/22 04:07:12;;;;;;;;;;;;;;;17.84;48.68;101681.94;4958147;28;1153;-65
2022/10/22 04:09:37;;;;;;;;;;;;;;;17.01;49.24;101682.06;4958043;28;2530;-63
2022/10/22 04:12:05;;;;;;;;;;;;;;;16.72;48.50;101680.28;4957491;28;1165;-62
2022/10/22 04:14:30;;;;;;;;;;;;;;;16.85;48.35;101679.06;4958096;28;1965;-64
2022/10/22 04:16:56;;;;;;;;;;;;;;;17.00;49.13;101673.00;4958052;28;1393;-64
2022/10/22 04:19:21;;;;;;;;;;;;;;;17.67;48.78;101682.03;4953627;28;1481;-66
2022/10/22 04:21:47;;;;;;;;;;;;;;;18.91;46.84;101661.84;4948688;28;1089;-65
2022/10/22 04:24:12;;;;;;;;;;;;;;;14.40;57.49;101679.59;4955527;28;1173;-65
2022/10/22 04:26:38;;;;;;;;;;;;;;;16.13;50.30;101672.50;4946865;28;1101;-62
2022/10/22 04:29:05;;;;;;;;;;;;;;;17.75;49.33;101670.56;4944681;28;1180;-65
2022/10/22 04:31:30;;;;;;;;;;;;;;;16.90;49.94;101664.59;4957871;28;1133;-65
2022/10/22 04:33:57;;;;;;;;;;;;;;;16.67;48.67;101669.19;4958076;28;1985;-63
2022/10/22 04:36:22;;;;;;;;;;;;;;;17.70;49.13;101664.19;4957548;28;1133;-61
2022/10/22 04:38:51;;;;;;;;;;;;;;;16.85;49.73;101667.25;4957814;28;2537;-62
2022/10/22 04:41:17;;;;;;;;;;;;;;;17.16;49.55;101663.03;4957858;28;1157;-63
2022/10/22 04:43:43;;;;;;;;;;;;;;;17.27;49.35;101666.72;4957249;28;1071;-62
2022/10/22 04:46:09;;;;;;;;;;;;;;;16.77;48.73;101672.13;4957410;28;1165;-62
2022/10/22 04:48:38;;;;;;;;;;;;;;;17.25;49.13;101667.00;4957224;28;846;-66
2022/10/22 04:51:04;;;;;;;;;;;;;;;17.27;49.23;101670.28;4958089;28;1133;-63
2022/10/22 04:53:29;;;;;;;;;;;;;;;16.88;48.47;101669.50;4957453;28;1973;-63
2022/10/22 04:56:05;;;;;;;;;;;;;;;18.21;47.79;101661.91;4957232;28;1066;-63
2022/10/22 04:58:30;;;;;;;;;;;;;;;17.10;49.28;101661.31;4957590;28;1164;-66
2022/10/22 05:00:55;;;;;;;;;;;;;;;16.90;48.05;101672.84;4959284;28;1090;-62
2022/10/22 05:03:23;;;;;;;;;;;;;;;16.72;47.52;101668.47;4958514;28;1204;-64
2022/10/22 05:05:48;;;;;;;;;;;;;;;17.67;48.34;101668.28;4950366;28;1124;-62
2022/10/22 05:08:14;;;;;;;;;;;;;;;16.91;48.64;101666.25;4952508;28;2419;-61
2022/10/22 05:10:39;;;;;;;;;;;;;;;16.77;47.76;101669.38;4960871;28;1145;-63
2022/10/22 05:13:05;;;;;;;;;;;;;;;17.24;48.65;101668.06;4960447;28;1970;-61
2022/10/22 05:15:31;;;;;;;;;;;;;;;17.17;48.82;101669.38;4961267;28;1179;-66
2022/10/22 05:17:57;;;;;;;;;;;;;;;18.91;46.69;101661.84;4961057;28;1136;-63
2022/10/22 05:20:22;;;;;;;;;;;;;;;17.63;48.75;101656.13;4961167;28;1149;-63
2022/10/22 05:22:48;;;;;;;;;;;;;;;17.20;48.46;101664.16;4960542;28;1452;-61
2022/10/22 05:25:13;;;;;;;;;;;;;;;17.40;48.61;101665.50;4960276;28;824;-61
2022/10/22 05:27:39;;;;;;;;;;;;;;;17.89;48.45;101678.38;4960401;28;1141;-64
2022/10/22 05:30:04;;;;;;;;;;;;;;;17.25;48.68;101677.97;4960741;28;1169;-63
2022/10/22 05:32:30;;;;;;;;;;;;;;;16.99;47.76;101685.06;4960613;28;1113;-64
2022/10/22 05:34:55;;;;;;;;;;;;;;;16.87;47.30;101687.06;4960099;28;1977;-61
2022/10/22 05:37:21;;;;;;;;;;;;;;;17.97;45.96;101683.44;4960687;28;1149;-61
2022/10/22 05:39:46;;;;;;;;;;;;;;;17.45;47.26;101682.06;4960278;28;2556;-61
2022/10/22 05:42:11;;;;;;;;;;;;;;;17.14;48.14;101689.09;4950541;28;1110;-63
2022/10/22 05:44:37;;;;;;;;;;;;;;;16.98;48.54;101680.66;4943381;28;1113;-64
2022/10/22 05:47:03;;;;;;;;;;;;;;;16.82;49.16;101684.25;4960491;28;1184;-62
2022/10/22 05:49:28;;;;;;;;;;;;;;;16.67;49.58;101682.09;4960027;28;1157;-63
2022/10/22 05:51:54;;;;;;;;;;;;;;;16.58;49.93;101679.78;4960254;28;1169;-65
2022/10/22 05:54:20;;;;;;;;;;;;;;;16.47;49.93;101674.41;4960239;28;1914;-64
2022/10/22 05:56:46;;;;;;;;;;;;;;;16.40;50.17;101683.63;4959735;28;1086;-60
2022/10/22 05:59:11;;;;;;;;;;;;;;;16.26;50.51;101665.84;4959946;28;1110;-60
2022/10/22 06:01:37;;;;;;;;;;;;;;;16.19;50.74;101663.25;4959384;28;1173;-60
2022/10/22 06:04:03;;;;;;;;;;;;;;;16.19;50.71;101662.44;4959882;28;1157;-61
2022/10/22 06:06:31;;;;;;;;;;;;;;;17.60;47.23;101662.16;4959676;28;1118;-62
2022/10/22 06:08:59;;;;;;;;;;;;;;;16.74;49.63;101667.09;4959708;28;2557;-63
2022/10/22 06:11:24;;;;;;;;;;;;;;;16.41;50.30;101663.34;4959439;28;1086;-59
2022/10/22 06:13:50;;;;;;;;;;;;;;;16.29;50.55;101661.78;4959509;28;1906;-60
2022/10/22 06:16:15;;;;;;;;;;;;;;;16.16;50.95;101651.94;4959667;28;1102;-64
2022/10/22 06:18:40;;;;;;;;;;;;;;;17.24;48.37;101657.06;4947613;28;1157;-64
2022/10/22 06:21:07;;;;;;;;;;;;;;;17.02;48.93;101662.56;4958498;28;1208;-62
2022/10/22 06:23:32;;;;;;;;;;;;;;;16.58;49.91;101674.28;4959652;28;1234;-61
2022/10/22 06:25:58;;;;;;;;;;;;;;;16.37;50.66;101673.16;4955788;28;1145;-62
2022/10/22 06:28:23;;;;;;;;;;;;;;;16.21;50.88;101669.31;4959627;28;1161;-63
2022/10/22 06:30:49;;;;;;;;;;;;;;;17.18;48.74;101666.34;4959785;28;1110;-63
2022/10/22 06:33:14;;;;;;;;;;;;;;;17.20;48.33;101674.34;4952837;28;1914;-63
2022/10/22 06:35:39;;;;;;;;;;;;;;;16.62;50.00;101671.03;4952494;29;1086;-62
2022/10/22 06:38:05;;;;;;;;;;;;;;;16.42;50.46;101672.41;4958812;28;2518;-62
2022/10/22 06:40:31;;;;;;;;;;;;;;;16.28;51.06;101662.84;4959233;28;1208;-64
2022/10/22 06:42:57;;;;;;;;;;;;;;;16.92;49.58;101666.00;4945813;28;1075;-66
2022/10/22 06:45:23;;;;;;;;;;;;;;;17.32;48.17;101666.81;4959617;28;1157;-65
2022/10/22 06:47:48;;;;;;;;;;;;;;;16.68;50.06;101656.31;4959230;28;1066;-65
2022/10/22 06:50:14;;;;;;;;;;;;;;;16.46;50.30;101659.84;4958699;28;906;-65
2022/10/22 06:52:40;;;;;;;;;;;;;;;16.26;51.01;101660.34;4959227;28;1153;-65
2022/10/22 06:55:05;;;;;;;;;;;;;;;17.10;49.26;101650.31;4958715;28;1902;-65
2022/10/22 06:57:31;;;;;;;;;;;;;;;17.45;48.10;101649.88;4959059;28;1125;-64
2022/10/22 06:59:56;;;;;;;;;;;;;;;16.75;49.86;101649.53;4958765;28;1201;-64
2022/10/22 07:02:21;;;;;;;;;;;;;;;16.48;50.51;101646.69;4959126;28;984;-65
2022/10/22 07:04:47;;;;;;;;;;;;;;;16.33;50.98;101639.06;4958640;28;1141;-64
2022/10/22 07:07:13;;;;;;;;;;;;;;;16.17;51.50;101645.38;4958610;28;1157;-65
2022/10/22 07:09:39;;;;;;;;;;;;;;;17.28;48.67;101638.16;4959393;28;2592;-65
2022/10/22 07:12:05;;;;;;;;;;;;;;;17.15;48.91;101639.38;4958686;28;1141;-65
2022/10/22 07:14:30;;;;;;;;;;;;;;;16.64;50.31;101638.69;4957512;29;1902;-64
2022/10/22 07:16:55;;;;;;;;;;;;;;;16.41;51.04;101638.63;4958963;28;1161;-65
2022/10/22 07:19:21;;;;;;;;;;;;;;;16.59;50.69;101640.28;4958150;28;1129;-65
2022/10/22 07:21:46;;;;;;;;;;;;;;;17.63;47.89;101634.13;4958578;28;1160;-65
2022/10/22 07:24:12;;;;;;;;;;;;;;;16.87;49.76;101630.22;4958191;28;1204;-65
2022/10/22 07:26:37;;;;;;;;;;;;;;;16.53;50.67;101632.22;4958381;28;951;-64
2022/10/22 07:29:03;;;;;;;;;;;;;;;16.36;51.12;101626.75;4958203;28;1216;-64
2022/10/22 07:31:28;;;;;;;;;;;;;;;16.25;51.23;101631.22;4959110;28;1200;-61
2022/10/22 07:33:54;;;;;;;;;;;;;;;16.24;51.43;101635.06;4953902;28;1911;-64
2022/10/22 07:36:19;;;;;;;;;;;;;;;17.82;47.65;101631.00;4958403;28;1157;-65
2022/10/22 07:38:45;;;;;;;;;;;;;;;16.99;49.18;101630.09;4958100;28;1856;-64
2022/10/22 07:41:10;;;;;;;;;;;;;;;16.57;50.39;101633.38;4958851;28;1161;-64
2022/10/22 07:43:36;;;;;;;;;;;;;;;16.38;50.99;101636.41;4958822;28;1141;-63
2022/10/22 07:46:01;;;;;;;;;;;;;;;16.25;51.42;101623.00;4958752;28;1157;-63
2022/10/22 07:48:27;;;;;;;;;;;;;;;16.90;49.85;101621.50;4944725;28;1106;-63
2022/10/22 07:50:52;;;;;;;;;;;;;;;17.55;47.88;101615.34;4958111;28;854;-63
2022/10/22 07:53:18;;;;;;;;;;;;;;;16.74;50.13;101623.16;4958315;28;1911;-63
2022/10/22 07:55:46;;;;;;;;;;;;;;;16.50;50.83;101627.22;4958470;28;1141;-64
2022/10/22 07:58:11;;;;;;;;;;;;;;;16.31;51.19;101611.00;4958425;28;1109;-63
2022/10/22 08:00:37;;;;;;;;;;;;;;;16.23;51.26;101612.28;4958244;28;1101;-63
2022/10/22 08:03:02;;;;;;;;;;;;;;;17.44;48.22;101617.97;4957832;28;920;-63
2022/10/22 08:05:28;;;;;;;;;;;;;;;17.13;49.20;101613.25;4945096;28;1149;-63
2022/10/22 08:07:53;;;;;;;;;;;;;;;16.67;50.14;101614.28;4958158;28;1126;-63
2022/10/22 08:10:19;;;;;;;;;;;;;;;16.39;50.70;101609.78;4957661;28;1173;-63
2022/10/22 08:12:44;;;;;;;;;;;;;;;16.30;51.33;101605.78;4944804;29;1047;-63
2022/10/22 08:15:10;;;;;;;;;;;;;;;16.19;51.19;101610.31;4957819;28;1910;-61
2022/10/22 08:17:35;;;;;;;;;;;;;;;16.95;49.64;101604.22;4958217;28;1102;-60
2022/10/22 08:20:00;;;;;;;;;;;;;;;17.39;48.38;101606.09;4957937;28;1184;-62
2022/10/22 08:22:26;;;;;;;;;;;;;;;16.70;49.87;101608.28;4957946;28;1157;-61
2022/10/22 08:24:52;;;;;;;;;;;;;;;16.46;50.64;101602.19;4958031;28;1157;-60
2022/10/22 08:27:17;;;;;;;;;;;;;;;16.35;50.85;101601.19;4957756;28;983;-61
2022/10/22 08:29:43;;;;;;;;;;;;;;;17.75;47.49;101598.19;4958109;28;1130;-62
2022/10/22 08:32:08;;;;;;;;;;;;;;;16.86;49.58;101586.53;4958322;28;1157;-62
2022/10/22 08:34:34;;;;;;;;;;;;;;;16.53;50.50;101586.34;4958602;28;1910;-62
2022/10/22 08:36:59;;;;;;;;;;;;;;;16.40;50.77;101584.00;4962116;28;1145;-61
2022/10/22 08:39:25;;;;;;;;;;;;;;;16.32;51.11;101581.66;4961491;28;991;-62
2022/10/22 08:41:57;;;;;;;;;;;;;;;17.47;48.36;101571.81;4961195;28;1145;-62
2022/10/22 08:44:32;;;;;;;;;;;;;;;17.00;49.31;101565.84;4978737;28;1220;-62
2022/10/22 08:47:00;;;;;;;;;;;;;;;16.58;50.44;101564.47;4961568;28;1212;-61
2022/10/22 08:49:31;;;;;;;;;;;;;;;16.48;50.57;101574.47;4961701;28;1098;-60
2022/10/22 08:51:57;;;;;;;;;;;;;;;16.32;51.18;101573.44;4961248;28;1117;-60
2022/10/22 08:54:38;;;;;;;;;;;;;;;17.64;47.87;101564.25;4980386;28;1981;-62
2022/10/22 08:57:04;;;;;;;;;;;;;;;16.80;49.79;101563.63;4948783;29;1098;-60
2022/10/22 08:59:45;;;;;;;;;;;;;;;16.52;50.38;101570.13;4961750;28;1153;-60
2022/10/22 09:02:19;;;;;;;;;;;;;;;16.37;51.01;101563.38;4948503;29;1114;-59
2022/10/22 09:04:46;;;;;;;;;;;;;;;17.60;47.79;101557.66;4960174;29;1141;-59
2022/10/22 09:07:12;;;;;;;;;;;;;;;17.14;48.59;101546.19;4985744;28;1136;-62
2022/10/22 09:09:39;;;;;;;;;;;;;;;16.73;50.04;101549.25;4984904;28;1227;-61
2022/10/22 09:12:06;;;;;;;;;;;;;;;16.50;50.61;101544.88;4974213;28;1200;-61
2022/10/22 09:14:31;;;;;;;;;;;;;;;16.36;50.78;101547.97;4961099;28;1902;-60
2022/10/22 09:17:02;;;;;;;;;;;;;;;16.27;51.20;101544.00;4961384;28;1157;-60
2022/10/22 09:19:31;;;;;;;;;;;;;;;17.28;48.83;101547.44;4961224;28;1192;-59
2022/10/22 09:21:59;;;;;;;;;;;;;;;17.34;48.19;101542.84;4949136;28;1198;-60
2022/10/22 09:24:31;;;;;;;;;;;;;;;16.73;49.71;101550.13;4959231;29;1168;-60
2022/10/22 09:26:56;;;;;;;;;;;;;;;16.51;50.35;101535.53;4960912;28;1196;-60
2022/10/22 09:29:23;;;;;;;;;;;;;;;16.32;50.83;101533.09;4961068;28;1156;-60
2022/10/22 09:31:48;;;;;;;;;;;;;;;16.27;51.13;101533.03;4960593;28;1232;-61
2022/10/22 09:34:14;;;;;;;;;;;;;;;16.66;50.30;101526.66;4960948;28;1906;-61
2022/10/22 09:36:40;;;;;;;;;;;;;;;17.56;47.55;101526.28;4960853;28;1102;-61
2022/10/22 09:39:11;;;;;;;;;;;;;;;16.75;49.53;101534.19;4960405;28;1341;-60
2022/10/22 09:41:37;;;;;;;;;;;;;;;16.48;50.31;101519.56;4959094;29;1331;-61
2022/10/22 09:44:02;;;;;;;;;;;;;;;16.30;50.75;101516.06;4979857;28;1124;-61
2022/10/22 09:46:28;;;;;;;;;;;;;;;16.20;51.06;101526.88;4985378;28;1541;-61
2022/10/22 09:49:09;;;;;;;;;;;;;;;17.45;48.20;101528.91;4950655;28;1142;-61
2022/10/22 09:51:37;;;;;;;;;;;;;;;17.14;48.62;101518.69;4987377;28;1215;-61
2022/10/22 09:54:12;;;;;;;;;;;;;;;16.67;49.81;101518.16;4959817;28;1972;-61
2022/10/22 09:56:40;;;;;;;;;;;;;;;16.43;50.46;101501.94;4977461;28;1116;-61
2022/10/22 09:59:11;;;;;;;;;;;;;;;16.30;50.97;101491.34;4960373;28;1177;-61
2022/10/22 10:01:37;;;;;;;;;;;;;;;16.18;51.20;101485.97;4975796;28;1187;-61
2022/10/22 10:04:07;;;;;;;;;;;;;;;16.53;50.55;101494.94;4956214;28;1006;-61
2022/10/22 10:06:33;;;;;;;;;;;;;;;17.60;47.38;101494.41;4960456;28;1219;-62
2022/10/22 10:09:04;;;;;;;;;;;;;;;16.79;49.70;101486.97;4960072;28;1172;-62
2022/10/22 10:11:36;;;;;;;;;;;;;;;16.48;50.27;101497.59;4960099;28;1164;-62
2022/10/22 10:14:25;;;;;;;;;;;;;;;16.31;50.95;101490.25;4958483;28;1907;-64
2022/10/22 10:16:58;;;;;;;;;;;;;;;16.16;51.14;101484.56;4982835;28;1132;-64
2022/10/22 10:19:30;;;;;;;;;;;;;;;16.88;49.60;101485.44;4959658;28;1145;-60
2022/10/22 10:22:14;;;;;;;;;;;;;;;17.34;48.35;101482.34;4979255;28;1144;-62
2022/10/22 10:24:48;;;;;;;;;;;;;;;16.63;49.90;101481.31;4946532;29;1098;-62
2022/10/22 10:27:18;;;;;;;;;;;;;;;16.39;50.51;101483.50;4959809;28;1192;-62
2022/10/22 10:29:50;;;;;;;;;;;;;;;16.28;50.86;101476.22;4958891;29;1184;-59
2022/10/22 10:32:31;;;;;;;;;;;;;;;16.80;49.60;101474.91;4990991;28;1187;-61
2022/10/22 10:34:56;;;;;;;;;;;;;;;17.14;48.73;101461.00;4946698;29;1910;-60
2022/10/22 10:37:26;;;;;;;;;;;;;;;16.63;49.84;101462.09;4959816;28;1142;-60
2022/10/22 10:40:04;;;;;;;;;;;;;;;16.42;50.73;101452.78;4959283;28;1244;-60
2022/10/22 10:42:29;;;;;;;;;;;;;;;16.23;51.04;101449.56;4959456;28;1274;-62
2022/10/22 10:44:58;;;;;;;;;;;;;;;16.48;50.69;101438.06;4958766;28;1188;-60
2022/10/22 10:47:29;;;;;;;;;;;;;;;17.83;47.17;101437.34;4959831;28;1208;-63
2022/10/22 10:49:58;;;;;;;;;;;;;;;16.91;48.99;101425.38;4959267;28;1173;-61
2022/10/22 10:52:27;;;;;;;;;;;;;;;16.55;50.14;101422.22;4957918;29;900;-60
2022/10/22 10:55:11;;;;;;;;;;;;;;;16.38;50.59;101405.84;4958815;28;1907;-61
2022/10/22 10:57:39;;;;;;;;;;;;;;;16.21;50.90;101405.06;4958306;28;1145;-61
2022/10/22 11:00:06;;;;;;;;;;;;;;;16.56;50.17;101403.81;4958814;28;1121;-61
2022/10/22 11:02:37;;;;;;;;;;;;;;;17.62;47.46;101395.94;4959063;28;1180;-59
2022/10/22 11:05:06;;;;;;;;;;;;;;;16.78;49.36;101392.78;4958287;28;1090;-62
2022/10/22 11:07:33;;;;;;;;;;;;;;;16.50;50.14;101396.63;4950591;28;1165;-61
2022/10/22 11:10:17;;;;;;;;;;;;;;;16.29;50.89;101385.41;4985696;28;1132;-62
2022/10/22 11:12:44;;;;;;;;;;;;;;;16.60;50.38;101381.06;4958991;28;1185;-62
2022/10/22 11:15:26;;;;;;;;;;;;;;;17.75;47.04;101379.00;4957932;28;1968;-60
2022/10/22 11:17:52;;;;;;;;;;;;;;;16.86;49.33;101377.75;4945015;29;1178;-64
2022/10/22 11:20:19;;;;;;;;;;;;;;;16.57;50.23;101375.28;4958753;28;1130;-60
2022/10/22 11:22:47;;;;;;;;;;;;;;;16.43;50.31;101370.19;4975759;28;1191;-62
2022/10/22 11:25:12;;;;;;;;;;;;;;;16.24;50.81;101356.00;4958639;28;1224;-60
2022/10/22 11:27:40;;;;;;;;;;;;;;;16.35;50.79;101359.66;4958733;28;1145;-61
2022/10/22 11:30:12;;;;;;;;;;;;;;;17.64;47.35;101355.25;4981261;28;1168;-61
2022/10/22 11:32:38;;;;;;;;;;;;;;;16.79;49.68;101355.16;4954502;29;1209;-59
2022/10/22 11:35:04;;;;;;;;;;;;;;;16.49;50.25;101357.34;4981718;28;1910;-60
2022/10/22 11:37:33;;;;;;;;;;;;;;;16.31;50.63;101350.28;4983372;28;1211;-60
2022/10/22 11:40:06;;;;;;;;;;;;;;;16.24;50.86;101333.19;4988476;28;907;-59
2022/10/22 11:42:39;;;;;;;;;;;;;;;17.30;48.55;101330.84;4958272;28;1223;-60
2022/10/22 11:45:14;;;;;;;;;;;;;;;17.24;48.28;101326.44;4945345;29;1154;-60
2022/10/22 11:47:58;;;;;;;;;;;;;;;16.69;49.86;101328.44;4958215;28;1153;-60
2022/10/22 11:50:42;;;;;;;;;;;;;;;16.43;50.60;101337.25;4946873;29;1197;-60
2022/10/22 11:53:08;;;;;;;;;;;;;;;16.29;50.89;101311.31;4950780;28;2454;-58
2022/10/22 11:55:47;;;;;;;;;;;;;;;16.67;49.97;101314.13;4957519;28;2157;-61
2022/10/22 11:58:21;;;;;;;;;;;;;;;17.54;47.68;101308.44;4957593;28;1947;-61
2022/10/22 12:00:47;;;;;;;;;;;;;;;16.75;49.62;101310.91;4958136;28;2082;-62
2022/10/22 12:03:16;;;;;;;;;;;;;;;16.54;50.29;101309.91;4957619;28;2095;-59
2022/10/22 12:05:41;;;;;;;;;;;;;;;16.35;50.73;101312.19;4957869;28;2205;-62
2022/10/22 12:08:23;;;;;;;;;;;;;;;16.62;50.18;101314.94;4957784;28;1855;-62
2022/10/22 12:10:49;;;;;;;;;;;;;;;17.64;47.54;101319.50;4949220;29;1205;-61
2022/10/22 12:13:35;;;;;;;;;;;;;;;16.86;49.39;101320.09;4960805;29;1918;-61
2022/10/22 12:16:01;;;;;;;;;;;;;;;16.58;50.27;101308.31;4944578;29;1181;-63
2022/10/22 12:18:30;;;;;;;;;;;;;;;16.39;50.83;101308.66;4953818;29;1136;-59
2022/10/22 12:20:55;;;;;;;;;;;;;;;16.25;51.24;101308.25;4975831;28;1480;-64
2022/10/22 12:23:23;;;;;;;;;;;;;;;16.61;50.40;101294.06;4951589;28;1114;-65
2022/10/22 12:25:49;;;;;;;;;;;;;;;17.50;47.91;101299.09;4979216;28;1121;-60
2022/10/22 12:28:15;;;;;;;;;;;;;;;16.77;49.61;101304.09;4961958;28;1021;-62
2022/10/22 12:30:40;;;;;;;;;;;;;;;16.51;50.34;101293.94;4961772;28;1090;-62
2022/10/22 12:33:06;;;;;;;;;;;;;;;16.36;50.80;101297.38;4979041;28;1171;-64
2022/10/22 12:35:34;;;;;;;;;;;;;;;16.91;49.69;101289.91;4961581;28;1973;-64
2022/10/22 12:38:00;;;;;;;;;;;;;;;17.51;48.04;101284.25;4961239;28;1840;-64
2022/10/22 12:40:29;;;;;;;;;;;;;;;16.80;49.78;101285.41;4961148;28;1211;-64
2022/10/22 12:42:55;;;;;;;;;;;;;;;16.54;50.33;101283.28;4961445;28;1188;-64
2022/10/22 12:45:26;;;;;;;;;;;;;;;16.37;51.02;101286.16;4961445;28;1149;-63
2022/10/22 12:47:54;;;;;;;;;;;;;;;16.28;50.87;101273.97;4960155;28;1086;-63
2022/10/22 12:50:22;;;;;;;;;;;;;;;17.25;48.64;101287.69;4949132;28;1113;-65